CFG4EN EDDF-LKPR
Flight info
| Callsign | CFG4EN |
|---|---|
| Flight time | 0h 41m |
| Altitude | 29000 |
| Route | SULUS7S/18 SULUS Z650 TONSU Z35 ODOMO DCT LOMKI |
| Aircraft | A321/M-SDE2E3FGHIJ1RWXYZ/SB1 |
Departure
| Time | 2026-05-04 16:51 |
|---|---|
| Airport | Frankfurt Main Airport (EDDF) |
Arrival
| Time | 2026-05-04 17:32 |
|---|---|
| Airport | Václav Havel Airport Prague (LKPR) |
| Time | Latitude | Longitude | Altitude | Speed | Heading |
|---|---|---|---|---|---|
| 2026-05-04 16:05 | 50.04830 | 8.58836 | 365 ft | 0 kts | 339° |
| 2026-05-04 16:37 | 50.04821 | 8.58842 | 366 ft | 3 kts | 339° |
| 2026-05-04 16:37 | 50.04783 | 8.58864 | 370 ft | 3 kts | 339° |
| 2026-05-04 16:38 | 50.04757 | 8.58879 | 368 ft | 1 kts | 339° |
| 2026-05-04 16:41 | 50.04761 | 8.58871 | 371 ft | 1 kts | 302° |
| 2026-05-04 16:41 | 50.04855 | 8.58703 | 364 ft | 16 kts | 339° |
| 2026-05-04 16:42 | 50.04853 | 8.58264 | 363 ft | 16 kts | 249° |
| 2026-05-04 16:43 | 50.04751 | 8.57950 | 358 ft | 17 kts | 222° |
| 2026-05-04 16:43 | 50.04645 | 8.57638 | 358 ft | 17 kts | 250° |
| 2026-05-04 16:43 | 50.04600 | 8.57449 | 364 ft | 20 kts | 249° |
| 2026-05-04 16:44 | 50.04406 | 8.56634 | 360 ft | 22 kts | 249° |
| 2026-05-04 16:45 | 50.04294 | 8.56168 | 360 ft | 23 kts | 250° |
| 2026-05-04 16:46 | 50.04118 | 8.55433 | 355 ft | 25 kts | 250° |
| 2026-05-04 16:46 | 50.04003 | 8.54950 | 358 ft | 24 kts | 250° |
| 2026-05-04 16:47 | 50.03883 | 8.54451 | 350 ft | 24 kts | 249° |
| 2026-05-04 16:47 | 50.03741 | 8.53982 | 348 ft | 25 kts | 250° |
| 2026-05-04 16:48 | 50.03557 | 8.53222 | 336 ft | 23 kts | 249° |
| 2026-05-04 16:48 | 50.03504 | 8.53000 | 333 ft | 20 kts | 249° |
| 2026-05-04 16:49 | 50.03422 | 8.52683 | 333 ft | 13 kts | 249° |
| 2026-05-04 16:49 | 50.03360 | 8.52595 | 334 ft | 11 kts | 180° |
| 2026-05-04 16:50 | 50.02660 | 8.52601 | 334 ft | 115 kts | 180° |
| 2026-05-04 16:50 | 50.00503 | 8.52622 | 889 ft | 168 kts | 182° |
| 2026-05-04 16:51 | 49.98126 | 8.52662 | 1993 ft | 185 kts | 181° |
| 2026-05-04 16:51 | 49.96828 | 8.53227 | 2340 ft | 205 kts | 150° |
| 2026-05-04 16:51 | 49.95031 | 8.57018 | 3103 ft | 235 kts | 119° |
| 2026-05-04 16:52 | 49.93993 | 8.61921 | 3575 ft | 259 kts | 92° |
| 2026-05-04 16:52 | 49.93907 | 8.64804 | 3844 ft | 271 kts | 92° |
| 2026-05-04 16:53 | 49.92818 | 8.70306 | 4067 ft | 270 kts | 131° |
| 2026-05-04 16:53 | 49.88479 | 8.75789 | 4023 ft | 270 kts | 130° |
| 2026-05-04 16:54 | 49.87447 | 8.78213 | 4088 ft | 270 kts | 119° |
| 2026-05-04 16:55 | 49.83789 | 8.88480 | 7649 ft | 274 kts | 123° |
| 2026-05-04 16:55 | 49.81891 | 8.93716 | 9253 ft | 285 kts | 123° |
| 2026-05-04 16:56 | 49.79893 | 8.99156 | 10797 ft | 294 kts | 124° |
| 2026-05-04 16:56 | 49.76606 | 9.08100 | 12057 ft | 347 kts | 118° |
| 2026-05-04 16:57 | 49.75776 | 9.11713 | 12412 ft | 367 kts | 107° |
| 2026-05-04 16:57 | 49.74629 | 9.19536 | 13768 ft | 378 kts | 105° |
| 2026-05-04 16:58 | 49.74523 | 9.31870 | 15387 ft | 403 kts | 71° |
| 2026-05-04 16:58 | 49.75502 | 9.35960 | 15973 ft | 407 kts | 71° |
| 2026-05-04 16:59 | 49.77516 | 9.44241 | 17098 ft | 415 kts | 71° |
| 2026-05-04 17:00 | 49.81606 | 9.61281 | 19047 ft | 430 kts | 71° |
| 2026-05-04 17:00 | 49.84744 | 9.74468 | 20424 ft | 439 kts | 71° |
| 2026-05-04 17:01 | 49.86865 | 9.83422 | 21355 ft | 446 kts | 71° |
| 2026-05-04 17:01 | 49.89004 | 9.92520 | 22306 ft | 452 kts | 71° |
| 2026-05-04 17:02 | 49.91167 | 10.01768 | 23261 ft | 459 kts | 72° |
| 2026-05-04 17:02 | 49.93354 | 10.11138 | 24067 ft | 464 kts | 71° |
| 2026-05-04 17:03 | 49.94455 | 10.15863 | 24453 ft | 467 kts | 71° |
| 2026-05-04 17:03 | 49.95561 | 10.20628 | 24848 ft | 470 kts | 71° |
| 2026-05-04 17:03 | 49.97785 | 10.30242 | 25666 ft | 476 kts | 71° |
| 2026-05-04 17:04 | 50.00019 | 10.39939 | 26483 ft | 483 kts | 71° |
| 2026-05-04 17:04 | 50.02288 | 10.49834 | 27281 ft | 488 kts | 71° |
| 2026-05-04 17:05 | 50.04574 | 10.59842 | 28027 ft | 492 kts | 71° |
| 2026-05-04 17:05 | 50.06152 | 10.70204 | 28735 ft | 493 kts | 87° |
| 2026-05-04 17:06 | 50.05739 | 10.80708 | 28962 ft | 478 kts | 105° |
| 2026-05-04 17:06 | 50.04840 | 10.85639 | 28962 ft | 472 kts | 111° |
| 2026-05-04 17:07 | 50.02112 | 10.98528 | 28967 ft | 471 kts | 111° |
| 2026-05-04 17:07 | 49.99733 | 11.09722 | 28963 ft | 468 kts | 111° |
| 2026-05-04 17:08 | 49.97005 | 11.24291 | 28961 ft | 471 kts | 99° |
| 2026-05-04 17:09 | 49.96617 | 11.34476 | 28951 ft | 473 kts | 95° |
| 2026-05-04 17:09 | 49.96298 | 11.44673 | 28937 ft | 473 kts | 95° |
| 2026-05-04 17:10 | 49.95444 | 11.70080 | 28954 ft | 470 kts | 95° |
| 2026-05-04 17:11 | 49.95093 | 11.80218 | 28952 ft | 470 kts | 95° |
| 2026-05-04 17:12 | 49.94539 | 11.95425 | 28939 ft | 470 kts | 95° |
| 2026-05-04 17:13 | 49.94046 | 12.20791 | 28947 ft | 471 kts | 94° |
| 2026-05-04 17:14 | 49.93571 | 12.41133 | 28940 ft | 471 kts | 94° |
| 2026-05-04 17:15 | 49.93114 | 12.56395 | 28943 ft | 473 kts | 94° |
| 2026-05-04 17:16 | 49.92496 | 12.76725 | 28622 ft | 473 kts | 94° |
| 2026-05-04 17:16 | 49.92021 | 12.92019 | 27292 ft | 472 kts | 94° |
| 2026-05-04 17:17 | 49.91856 | 12.97110 | 26304 ft | 474 kts | 94° |
| 2026-05-04 17:17 | 49.91347 | 13.12516 | 23484 ft | 476 kts | 94° |
| 2026-05-04 17:18 | 49.91175 | 13.17600 | 22673 ft | 470 kts | 95° |
| 2026-05-04 17:18 | 49.90823 | 13.27551 | 21079 ft | 458 kts | 95° |
| 2026-05-04 17:19 | 49.90447 | 13.37350 | 19563 ft | 447 kts | 95° |
| 2026-05-04 17:19 | 49.90079 | 13.46808 | 18105 ft | 437 kts | 95° |
| 2026-05-04 17:20 | 49.89726 | 13.56108 | 16450 ft | 427 kts | 95° |
| 2026-05-04 17:20 | 49.89407 | 13.65191 | 14868 ft | 417 kts | 95° |
| 2026-05-04 17:20 | 49.89261 | 13.69667 | 14114 ft | 413 kts | 95° |
| 2026-05-04 17:21 | 49.88985 | 13.78485 | 12554 ft | 406 kts | 95° |
| 2026-05-04 17:21 | 49.88709 | 13.87137 | 11100 ft | 397 kts | 92° |
| 2026-05-04 17:22 | 49.88899 | 13.91393 | 10399 ft | 394 kts | 85° |
| 2026-05-04 17:22 | 49.89183 | 13.95550 | 10166 ft | 377 kts | 85° |
| 2026-05-04 17:23 | 49.89962 | 14.06775 | 9801 ft | 325 kts | 85° |
| 2026-05-04 17:23 | 49.90201 | 14.10174 | 9602 ft | 309 kts | 85° |
| 2026-05-04 17:23 | 49.90655 | 14.16632 | 8512 ft | 296 kts | 85° |
| 2026-05-04 17:24 | 49.90868 | 14.19792 | 8017 ft | 293 kts | 85° |
| 2026-05-04 17:24 | 49.91472 | 14.29092 | 6777 ft | 284 kts | 85° |
| 2026-05-04 17:25 | 49.91663 | 14.32133 | 6377 ft | 281 kts | 85° |
| 2026-05-04 17:25 | 49.92049 | 14.38123 | 5544 ft | 275 kts | 84° |
| 2026-05-04 17:26 | 49.92427 | 14.43983 | 4619 ft | 271 kts | 85° |
| 2026-05-04 17:26 | 49.93530 | 14.51890 | 4150 ft | 239 kts | 46° |
| 2026-05-04 17:27 | 49.96551 | 14.52919 | 4008 ft | 239 kts | 335° |
| 2026-05-04 17:27 | 49.98765 | 14.49356 | 4010 ft | 229 kts | 306° |
| 2026-05-04 17:28 | 50.00622 | 14.45514 | 3903 ft | 213 kts | 306° |
| 2026-05-04 17:29 | 50.03156 | 14.40307 | 3156 ft | 191 kts | 306° |
| 2026-05-04 17:29 | 50.05450 | 14.35597 | 2487 ft | 165 kts | 307° |
| 2026-05-04 17:30 | 50.07378 | 14.31605 | 1799 ft | 148 kts | 308° |
| 2026-05-04 17:31 | 50.08596 | 14.29092 | 1418 ft | 146 kts | 308° |
| 2026-05-04 17:31 | 50.09982 | 14.26237 | 1197 ft | 70 kts | 306° |
| 2026-05-04 17:32 | 50.10376 | 14.25656 | 1183 ft | 21 kts | 352° |
| 2026-05-04 17:33 | 50.10490 | 14.25778 | 1175 ft | 0 kts | 79° |
| 2026-05-04 17:34 | 50.10494 | 14.25814 | 1175 ft | 6 kts | 79° |
| 2026-05-04 17:34 | 50.10508 | 14.25923 | 1174 ft | 15 kts | 78° |
| 2026-05-04 17:35 | 50.10458 | 14.26420 | 1171 ft | 17 kts | 124° |
| 2026-05-04 17:35 | 50.10346 | 14.26674 | 1171 ft | 5 kts | 124° |
| 2026-05-04 17:35 | 50.10339 | 14.26708 | 1171 ft | 1 kts | 75° |
| 2026-05-04 17:36 | 50.10353 | 14.26729 | 1171 ft | 3 kts | 39° |
| 2026-05-04 17:36 | 50.10367 | 14.26744 | 1171 ft | 0 kts | 34° |